Time;durP1;ratioP1;P1;durP2;ratioP2;P2;SDS_P1;SDS_P2;PMS_P1;PMS_P2;Temp;Humidity;BMP_temperature;BMP_pressure;BME280_temperature;BME280_humidity;BME280_pressure;Samples;Min_cycle;Max_cycle;Signal;HPM_P1;HPM_P2
2022/04/03 00:02:07;;;;;;;20.70;9.27;;;;;;;-0.32;47.15;100477.23;1685637;85;21024;-72
2022/04/03 00:04:34;;;;;;;19.23;7.50;;;;;;;-0.33;47.27;100471.66;1685512;85;21504;-72
2022/04/03 00:07:02;;;;;;;23.07;8.40;;;;;;;-0.31;47.43;100476.38;1685625;85;21528;-72
2022/04/03 00:09:30;;;;;;;18.97;7.87;;;;;;;-0.29;47.48;100475.11;1685473;85;21035;-72
2022/04/03 00:11:57;;;;;;;12.87;5.53;;;;;;;-0.30;47.57;100474.26;1685503;85;22028;-72
2022/04/03 00:14:24;;;;;;;15.70;7.73;;;;;;;-0.29;47.49;100477.26;1685415;85;21027;-75
2022/04/03 00:16:51;;;;;;;12.90;6.03;;;;;;;-0.28;47.60;100475.14;1685815;85;21027;-72
2022/04/03 00:19:18;;;;;;;15.33;7.57;;;;;;;-0.26;47.60;100480.28;1685490;85;21047;-72
2022/04/03 00:21:46;;;;;;;13.97;6.60;;;;;;;-0.28;47.61;100476.42;1685505;85;21039;-72
2022/04/03 00:24:13;;;;;;;14.60;6.27;;;;;;;-0.25;47.68;100480.31;1685575;85;21915;-72
2022/04/03 00:26:41;;;;;;;11.13;4.63;;;;;;;-0.27;47.64;100474.28;1685391;85;21028;-72
2022/04/03 00:29:08;;;;;;;14.07;5.43;;;;;;;-0.28;47.60;100479.41;1685530;85;21480;-72
2022/04/03 00:31:36;;;;;;;18.67;7.53;;;;;;;-0.29;47.66;100478.98;1685595;85;21020;-72
2022/04/03 00:34:04;;;;;;;12.70;4.60;;;;;;;-0.30;47.64;100478.55;1685694;85;21528;-73
2022/04/03 00:36:31;;;;;;;13.80;4.73;;;;;;;-0.34;47.69;100472.48;1685482;85;21223;-72
2022/04/03 00:38:58;;;;;;;20.60;7.17;;;;;;;-0.34;47.79;100471.63;1685560;85;21516;-72
2022/04/03 00:41:26;;;;;;;18.50;6.80;;;;;;;-0.35;47.78;100472.49;1685632;85;21066;-72
2022/04/03 00:43:54;;;;;;;12.27;5.23;;;;;;;-0.37;47.82;100471.61;1685576;85;20916;-73
2022/04/03 00:46:22;;;;;;;15.43;5.00;;;;;;;-0.41;47.86;100479.74;1685569;85;21035;-73
2022/04/03 00:48:50;;;;;;;11.27;4.87;;;;;;;-0.44;48.01;100481.01;1685634;85;21257;-72
2022/04/03 00:51:18;;;;;;;16.00;7.63;;;;;;;-0.45;48.09;100483.98;1685503;85;21048;-73
2022/04/03 00:53:45;;;;;;;15.07;6.93;;;;;;;-0.46;48.17;100485.27;1685528;84;21078;-72
2022/04/03 00:56:12;;;;;;;14.67;6.63;;;;;;;-0.46;48.21;100483.98;1685719;85;21020;-73
2022/04/03 00:58:40;;;;;;;21.77;10.00;;;;;;;-0.50;48.34;100484.78;1685664;85;21611;-73
2022/04/03 01:01:07;;;;;;;17.47;7.23;;;;;;;-0.52;48.39;100485.22;1685609;85;21147;-72
2022/04/03 01:03:35;;;;;;;22.17;8.03;;;;;;;-0.56;48.50;100484.30;1685830;85;21493;-72
2022/04/03 01:06:03;;;;;;;20.60;7.03;;;;;;;-0.57;48.70;100486.45;1685593;85;21058;-73
2022/04/03 01:08:31;;;;;;;13.30;6.30;;;;;;;-0.61;48.88;100488.58;1685583;85;21526;-73
2022/04/03 01:10:59;;;;;;;14.00;5.37;;;;;;;-0.62;49.09;100487.25;1685584;85;21039;-73
2022/04/03 01:13:26;;;;;;;12.93;5.67;;;;;;;-0.66;49.19;100490.23;1685680;85;22116;-73
2022/04/03 01:15:59;;;;;;;15.37;6.00;;;;;;;-0.66;49.39;100490.66;1685612;85;20893;-73
2022/04/03 01:18:28;;;;;;;11.07;5.13;;;;;;;-0.69;49.61;100494.07;1685593;85;21083;-76
2022/04/03 01:20:54;;;;;;;10.13;4.17;;;;;;;-0.71;49.76;100486.31;1685571;85;21552;-73
2022/04/03 01:23:25;;;;;;;6.20;3.83;;;;;;;-0.73;49.95;100485.86;1685707;85;21563;-73
2022/04/03 01:25:52;;;;;;;7.95;4.30;;;;;;;-0.78;50.05;100493.95;1685696;85;21088;-73
2022/04/03 01:28:19;;;;;;;10.90;5.43;;;;;;;-0.81;50.21;100487.48;1685621;85;21485;-73
2022/04/03 01:30:46;;;;;;;9.77;4.10;;;;;;;-0.83;50.36;100484.92;1685641;85;21056;-73
2022/04/03 01:33:14;;;;;;;8.87;3.40;;;;;;;-0.85;50.56;100490.46;1685696;85;21028;-73
2022/04/03 01:35:42;;;;;;;9.13;3.70;;;;;;;-0.89;50.69;100492.55;1685895;85;21539;-73
2022/04/03 01:38:09;;;;;;;10.93;3.90;;;;;;;-0.94;50.82;100498.95;1685695;85;21131;-73
2022/04/03 01:40:37;;;;;;;8.13;3.00;;;;;;;-0.97;51.14;100497.63;1685839;85;21004;-74
2022/04/03 01:43:07;;;;;;;8.63;3.53;;;;;;;-0.98;51.23;100500.17;1685629;85;21090;-73
2022/04/03 01:45:35;;;;;;;9.30;3.50;;;;;;;-1.02;51.33;100505.71;1685887;85;21023;-73
2022/04/03 01:48:04;;;;;;;11.93;3.77;;;;;;;-1.06;51.65;100505.65;1685535;85;21032;-74
2022/04/03 01:50:32;;;;;;;9.60;3.58;;;;;;;-1.09;51.81;100503.90;1686021;85;21790;-73
2022/04/03 01:53:00;;;;;;;7.43;3.50;;;;;;;-1.12;51.97;100509.02;1685494;85;21052;-74
2022/04/03 01:55:28;;;;;;;6.53;3.33;;;;;;;-1.15;52.14;100513.69;1689379;84;21007;-74
2022/04/03 01:57:56;;;;;;;12.00;3.40;;;;;;;-1.19;52.23;100513.23;1690632;84;20996;-74
2022/04/03 02:00:24;;;;;;;11.63;3.70;;;;;;;-1.22;52.42;100517.45;1690617;84;21107;-74
2022/04/03 02:02:52;;;;;;;9.27;4.07;;;;;;;-1.27;52.60;100517.41;1690686;84;21319;-74
2022/04/03 02:05:21;;;;;;;9.33;3.40;;;;;;;-1.30;52.75;100517.38;1690527;84;21012;-74
2022/04/03 02:07:49;;;;;;;8.77;3.57;;;;;;;-1.33;52.88;100518.63;1690478;84;21031;-74
2022/04/03 02:10:16;;;;;;;9.93;4.60;;;;;;;-1.35;53.17;100513.88;1690632;84;21072;-74
2022/04/03 02:12:44;;;;;;;6.20;3.27;;;;;;;-1.37;53.31;100520.27;1690538;84;21496;-74
2022/04/03 02:15:13;;;;;;;6.53;2.90;;;;;;;-1.40;53.46;100524.52;1690534;84;22107;-74
2022/04/03 02:17:40;;;;;;;7.53;3.27;;;;;;;-1.45;53.54;100526.16;1690451;84;21552;-74
2022/04/03 02:20:10;;;;;;;4.03;2.50;;;;;;;-1.45;53.72;100522.30;1690486;84;20975;-74
2022/04/03 02:22:38;;;;;;;8.47;3.03;;;;;;;-1.46;53.88;100521.87;1690522;84;21556;-74
2022/04/03 02:25:11;;;;;;;6.20;3.13;;;;;;;-1.50;54.12;100523.94;1690479;84;21593;-74
2022/04/03 02:27:38;;;;;;;6.90;3.07;;;;;;;-1.55;54.09;100527.75;1689818;84;21238;-74
2022/04/03 02:30:10;;;;;;;5.70;3.10;;;;;;;-1.59;54.22;100525.53;1690427;84;21039;-75
2022/04/03 02:32:39;;;;;;;6.97;3.53;;;;;;;-1.61;54.28;100532.77;1690575;84;22065;-74
2022/04/03 02:35:08;;;;;;;9.30;4.17;;;;;;;-1.63;54.53;100534.48;1690509;84;21023;-74
2022/04/03 02:37:37;;;;;;;6.57;3.43;;;;;;;-1.65;54.64;100539.59;1690728;84;21039;-79
2022/04/03 02:40:08;;;;;;;13.47;6.33;;;;;;;-1.70;54.66;100533.50;1690480;84;21521;-74
2022/04/03 02:42:36;;;;;;;9.90;4.58;;;;;;;-1.73;54.75;100536.46;1690880;84;20967;-74
2022/04/03 02:45:06;;;;;;;11.03;4.20;;;;;;;-1.77;54.84;100533.38;1690489;84;21538;-74
2022/04/03 02:47:34;;;;;;;12.80;5.33;;;;;;;-1.82;54.93;100534.20;1690843;84;21528;-74
2022/04/03 02:50:03;;;;;;;13.90;5.43;;;;;;;-1.85;55.04;100541.00;1690502;84;21035;-74
2022/04/03 02:52:30;;;;;;;17.43;6.17;;;;;;;-1.94;55.05;100539.55;1690818;84;21792;-74
2022/04/03 02:54:57;;;;;;;8.83;4.27;;;;;;;-2.02;55.25;100537.73;1690254;84;21086;-74
2022/04/03 02:57:25;;;;;;;14.13;5.53;;;;;;;-2.03;55.47;100550.55;1690821;84;21039;-74
2022/04/03 02:59:52;;;;;;;10.50;4.80;;;;;;;-2.07;55.53;100544.50;1690538;84;21548;-74
2022/04/03 03:02:19;;;;;;;9.33;3.60;;;;;;;-2.11;55.78;100549.13;1690822;84;21012;-74
2022/04/03 03:04:46;;;;;;;7.70;3.83;;;;;;;-2.17;55.59;100551.59;1690548;84;21131;-74
2022/04/03 03:07:14;;;;;;;9.03;3.93;;;;;;;-2.27;55.68;100550.59;1690714;84;20992;-74
2022/04/03 03:09:43;;;;;;;7.63;3.20;;;;;;;-2.32;55.98;100548.78;1690456;84;21043;-74
2022/04/03 03:12:10;;;;;;;8.33;3.40;;;;;;;-2.38;56.11;100540.55;1690867;84;21306;-73
2022/04/03 03:14:37;;;;;;;6.73;3.70;;;;;;;-2.40;56.40;100547.78;1690517;84;21016;-73
2022/04/03 03:17:05;;;;;;;5.67;3.47;;;;;;;-2.44;56.60;100546.83;1690804;84;21580;-74
2022/04/03 03:19:32;;;;;;;8.23;3.27;;;;;;;-2.47;56.71;100549.34;1690415;84;21008;-74
2022/04/03 03:21:59;;;;;;;10.13;3.90;;;;;;;-2.48;56.75;100553.62;1690767;84;21012;-73
2022/04/03 03:24:26;;;;;;;10.00;3.63;;;;;;;-2.51;56.97;100554.86;1690483;84;21027;-73
2022/04/03 03:26:54;;;;;;;8.23;3.30;;;;;;;-2.53;57.05;100556.95;1690705;84;21087;-78
2022/04/03 03:29:21;;;;;;;8.33;3.20;;;;;;;-2.56;57.24;100556.47;1690556;84;21936;-73
2022/04/03 03:31:48;;;;;;;9.40;3.57;;;;;;;-2.59;57.19;100560.27;1690631;84;21031;-74
2022/04/03 03:34:15;;;;;;;5.70;2.97;;;;;;;-2.59;57.52;100565.81;1690565;84;20996;-73
2022/04/03 03:36:43;;;;;;;7.57;3.23;;;;;;;-2.58;57.57;100571.39;1690470;84;21008;-73
2022/04/03 03:39:12;;;;;;;5.63;2.67;;;;;;;-2.61;57.55;100561.92;1690453;84;21079;-73
2022/04/03 03:41:39;;;;;;;5.40;2.67;;;;;;;-2.64;57.57;100567.00;1690485;84;21951;-73
2022/04/03 03:44:10;;;;;;;8.00;3.13;;;;;;;-2.67;57.75;100571.22;1690351;84;21023;-74
2022/04/03 03:46:40;;;;;;;5.58;2.95;;;;;;;-2.68;58.02;100570.36;1690695;84;21539;-74
2022/04/03 03:49:08;;;;;;;6.23;2.83;;;;;;;-2.67;58.06;100570.80;1690492;84;21043;-73
2022/04/03 03:51:37;;;;;;;6.00;2.97;;;;;;;-2.70;58.15;100565.19;1690817;84;21047;-74
2022/04/03 03:54:08;;;;;;;6.87;3.00;;;;;;;-2.68;58.14;100572.06;1690625;84;21136;-73
2022/04/03 03:56:35;;;;;;;6.50;3.10;;;;;;;-2.71;58.33;100576.30;1685703;84;21496;-73
2022/04/03 03:59:05;;;;;;;6.23;3.03;;;;;;;-2.73;58.27;100574.11;1685557;85;21054;-74
2022/04/03 04:01:31;;;;;;;6.63;2.70;;;;;;;-2.76;58.24;100586.02;1685813;85;21035;-73
2022/04/03 04:03:58;;;;;;;4.50;2.77;;;;;;;-2.79;58.47;100585.54;1685564;85;21696;-79
2022/04/03 04:06:25;;;;;;;8.30;3.30;;;;;;;-2.79;58.59;100585.96;1685700;85;21065;-73
2022/04/03 04:08:53;;;;;;;7.87;3.10;;;;;;;-2.80;58.58;100588.95;1685387;85;21079;-73
2022/04/03 04:11:21;;;;;;;7.13;2.80;;;;;;;-2.80;58.77;100593.19;1685495;85;21043;-74
2022/04/03 04:13:48;;;;;;;7.70;2.80;;;;;;;-2.82;58.77;100598.30;1685488;85;21011;-73
2022/04/03 04:16:15;;;;;;;7.70;3.00;;;;;;;-2.85;58.78;100592.26;1685924;85;21052;-73
2022/04/03 04:18:44;;;;;;;5.77;2.17;;;;;;;-2.86;58.97;100593.07;1685619;85;21794;-73
2022/04/03 04:21:12;;;;;;;6.70;2.67;;;;;;;-2.90;58.95;100598.98;1685813;85;21016;-74
2022/04/03 04:23:40;;;;;;;7.13;2.93;;;;;;;-2.94;59.03;100609.19;1685678;85;21024;-74
2022/04/03 04:26:07;;;;;;;4.10;2.23;;;;;;;-2.95;59.25;100615.55;1685859;85;21449;-73
2022/04/03 04:28:35;;;;;;;6.63;2.90;;;;;;;-2.93;59.40;100610.91;1685595;85;21043;-73
2022/04/03 04:31:02;;;;;;;5.40;2.47;;;;;;;-2.93;59.39;100616.03;1685875;85;21861;-73
2022/04/03 04:33:29;;;;;;;6.10;2.87;;;;;;;-2.94;59.52;100620.73;1685559;85;21004;-73
2022/04/03 04:35:56;;;;;;;11.07;3.70;;;;;;;-2.94;59.56;100619.84;1685870;85;21028;-74
2022/04/03 04:38:23;;;;;;;7.13;3.53;;;;;;;-2.95;59.71;100622.83;1685718;85;21489;-73
2022/04/03 04:40:51;;;;;;;7.90;3.87;;;;;;;-2.95;59.77;100621.96;1685860;85;21492;-74
2022/04/03 04:43:18;;;;;;;10.37;5.20;;;;;;;-2.94;59.77;100619.84;1685598;85;21950;-74
2022/04/03 04:45:45;;;;;;;9.60;4.60;;;;;;;-2.95;59.71;100618.97;1685784;85;21481;-74
2022/04/03 04:48:13;;;;;;;9.60;4.70;;;;;;;-2.95;59.71;100626.67;1685571;85;21031;-73
2022/04/03 04:50:40;;;;;;;8.87;4.17;;;;;;;-2.96;59.87;100630.08;1685701;85;21052;-73
2022/04/03 04:53:08;;;;;;;9.17;4.70;;;;;;;-2.97;59.73;100632.17;1685950;85;21067;-80
2022/04/03 04:55:35;;;;;;;9.23;3.80;;;;;;;-2.99;59.87;100640.70;1685500;85;21171;-74
2022/04/03 04:58:02;;;;;;;7.60;3.50;;;;;;;-3.00;59.93;100637.66;1685630;85;21087;-73
2022/04/03 05:00:31;;;;;;;7.13;3.40;;;;;;;-3.00;60.08;100640.23;1685618;85;21044;-74
2022/04/03 05:02:59;;;;;;;8.10;3.20;;;;;;;-3.01;60.12;100635.94;1686240;84;21051;-73
2022/04/03 05:05:28;;;;;;;6.93;3.50;;;;;;;-3.01;60.19;100647.06;1704482;83;22298;-73
2022/04/03 05:07:58;;;;;;;7.33;2.93;;;;;;;-3.00;60.30;100641.09;1700504;84;22057;-74
2022/04/03 05:10:26;;;;;;;5.37;2.83;;;;;;;-2.97;60.39;100644.14;1700666;84;21056;-73
2022/04/03 05:12:54;;;;;;;7.77;4.60;;;;;;;-2.94;60.50;100641.25;1699781;83;21035;-73
2022/04/03 05:15:23;;;;;;;12.63;5.30;;;;;;;-2.88;60.49;100646.03;1699920;84;21043;-73
2022/04/03 05:17:50;;;;;;;12.67;6.43;;;;;;;-2.86;60.41;100650.36;1700418;84;21043;-73
2022/04/03 05:20:17;;;;;;;10.87;5.10;;;;;;;-2.86;60.55;100652.92;1700032;84;21120;-73
2022/04/03 05:22:45;;;;;;;15.73;8.13;;;;;;;-2.81;60.79;100658.17;1700246;84;21035;-77
2022/04/03 05:25:12;;;;;;;13.03;7.33;;;;;;;-2.78;60.63;100662.94;1700271;84;21019;-74
2022/04/03 05:27:41;;;;;;;12.77;6.07;;;;;;;-2.74;60.73;100660.91;1700252;84;21020;-78
2022/04/03 05:30:10;;;;;;;7.77;3.53;;;;;;;-2.72;60.60;100664.77;1700138;84;21503;-73
2022/04/03 05:32:37;;;;;;;10.47;4.30;;;;;;;-2.73;60.64;100663.05;1700272;84;21197;-74
2022/04/03 05:35:06;;;;;;;6.77;3.50;;;;;;;-2.70;60.78;100668.23;1699852;84;21035;-75
2022/04/03 05:37:33;;;;;;;6.97;3.10;;;;;;;-2.66;60.95;100668.77;1700304;84;21004;-76
2022/04/03 05:40:00;;;;;;;5.77;3.43;;;;;;;-2.58;61.10;100674.03;1699949;84;21043;-74
2022/04/03 05:42:28;;;;;;;5.93;3.40;;;;;;;-2.55;60.89;100673.70;1700401;84;21062;-74
2022/04/03 05:44:54;;;;;;;6.80;3.80;;;;;;;-2.52;60.85;100682.75;1700236;84;21128;-73
2022/04/03 05:47:21;;;;;;;6.30;3.73;;;;;;;-2.50;61.07;100677.20;1668584;86;21603;-73
2022/04/03 05:49:48;;;;;;;6.17;3.30;;;;;;;-2.46;61.03;100676.88;1700138;84;21019;-75
2022/04/03 05:52:16;;;;;;;6.90;3.30;;;;;;;-2.40;60.97;100682.55;1700457;84;21466;-74
2022/04/03 05:54:42;;;;;;;9.00;4.00;;;;;;;-2.41;60.80;100682.97;1698879;82;21044;-73
2022/04/03 05:57:10;;;;;;;8.70;4.73;;;;;;;-2.40;60.82;100687.25;1700243;84;21130;-74
2022/04/03 05:59:37;;;;;;;10.20;3.60;;;;;;;-2.37;60.81;100689.88;1700241;84;21471;-74
2022/04/03 06:02:05;;;;;;;14.43;8.33;;;;;;;-2.37;60.82;100685.17;1699730;84;21039;-74
2022/04/03 06:04:33;;;;;;;7.03;4.10;;;;;;;-2.33;60.96;100688.23;1700059;84;21509;-75
2022/04/03 06:07:00;;;;;;;7.87;4.20;;;;;;;-2.31;60.78;100687.84;1699979;84;21220;-73
2022/04/03 06:09:27;;;;;;;7.07;4.03;;;;;;;-2.28;60.88;100695.19;1699979;84;21134;-74
2022/04/03 06:11:54;;;;;;;8.77;4.53;;;;;;;-2.20;61.04;100695.77;1699999;84;21090;-73
2022/04/03 06:14:20;;;;;;;8.77;4.70;;;;;;;-2.14;61.05;100694.17;1699959;84;20943;-73
2022/04/03 06:16:48;;;;;;;4.97;3.23;;;;;;;-1.99;61.06;100688.91;1700239;84;21067;-73
2022/04/03 06:19:14;;;;;;;6.17;3.67;;;;;;;-1.84;61.11;100691.31;1711575;83;21043;-74
2022/04/03 06:21:41;;;;;;;9.20;3.97;;;;;;;-1.67;60.84;100693.31;1698307;84;21130;-74
2022/04/03 06:24:08;;;;;;;9.03;3.80;;;;;;;-1.55;60.83;100697.40;1715712;82;21035;-73
2022/04/03 06:26:37;;;;;;;8.20;4.00;;;;;;;-1.44;60.57;100698.45;1707822;84;20999;-75
2022/04/03 06:29:04;;;;;;;8.40;3.33;;;;;;;-1.36;60.45;100698.15;1707547;84;20996;-73
2022/04/03 06:31:31;;;;;;;8.97;4.10;;;;;;;-1.25;60.36;100696.14;1707805;83;21090;-73
2022/04/03 06:33:58;;;;;;;5.73;3.23;;;;;;;-1.13;60.29;100701.50;1707552;84;21092;-73
2022/04/03 06:36:26;;;;;;;9.23;3.67;;;;;;;-1.04;60.10;100699.05;1707773;84;20972;-74
2022/04/03 06:38:52;;;;;;;8.07;3.63;;;;;;;-0.96;59.80;100700.47;1707499;83;21038;-73
2022/04/03 06:41:19;;;;;;;7.70;3.63;;;;;;;-0.91;59.80;100701.40;1707870;84;20996;-74
2022/04/03 06:43:47;;;;;;;6.83;3.37;;;;;;;-0.83;59.73;100705.34;1707536;84;21092;-73
2022/04/03 06:46:15;;;;;;;13.07;3.27;;;;;;;-0.72;59.62;100706.36;1707879;83;21176;-73
2022/04/03 06:48:42;;;;;;;5.43;2.70;;;;;;;-0.63;59.36;100712.08;1707681;84;21611;-76
2022/04/03 06:51:09;;;;;;;6.83;3.60;;;;;;;-0.56;59.30;100703.58;1707432;84;21059;-74
2022/04/03 06:53:36;;;;;;;7.10;3.83;;;;;;;-0.48;59.11;100707.97;1707853;84;21030;-74
2022/04/03 06:56:04;;;;;;;5.63;3.20;;;;;;;-0.34;59.08;100708.58;1714851;82;21007;-73
2022/04/03 06:58:31;;;;;;;8.50;4.27;;;;;;;-0.26;58.72;100705.67;1730725;82;22035;-74
2022/04/03 07:00:57;;;;;;;8.10;3.63;;;;;;;-0.17;58.82;100708.78;1730614;82;22112;-73
2022/04/03 07:03:24;;;;;;;6.20;2.83;;;;;;;-0.06;58.75;100700.31;1698228;84;21067;-75
2022/04/03 07:05:52;;;;;;;5.37;3.03;;;;;;;0.07;58.50;100701.75;1698185;84;21036;-73
2022/04/03 07:08:19;;;;;;;6.40;2.90;;;;;;;0.21;58.37;100706.19;1698205;84;21653;-73
2022/04/03 07:10:46;;;;;;;8.00;3.70;;;;;;;0.41;58.39;100709.39;1698364;84;21194;-73
2022/04/03 07:13:13;;;;;;;8.53;3.87;;;;;;;0.61;58.09;100711.73;1698125;83;21023;-74
2022/04/03 07:15:40;;;;;;;7.47;2.70;;;;;;;0.79;57.82;100709.72;1698206;84;21019;-74
2022/04/03 07:18:07;;;;;;;7.13;3.33;;;;;;;0.96;57.46;100711.56;1698255;84;21013;-76
2022/04/03 07:20:34;;;;;;;11.43;4.80;;;;;;;1.08;57.04;100711.23;1698557;84;21556;-75
2022/04/03 07:23:01;;;;;;;7.67;3.47;;;;;;;1.21;56.83;100720.34;1698138;84;21293;-75
2022/04/03 07:25:28;;;;;;;10.23;5.30;;;;;;;1.30;56.36;100717.39;1698374;83;21023;-74
2022/04/03 07:27:55;;;;;;;11.20;6.00;;;;;;;1.39;56.21;100720.45;1698186;84;21031;-74
2022/04/03 07:30:23;;;;;;;9.53;4.47;;;;;;;1.55;56.17;100713.62;1698147;84;37619;-74
2022/04/03 07:32:50;;;;;;;11.87;4.57;;;;;;;1.70;55.92;100714.14;1698354;84;21122;-72
2022/04/03 07:35:17;;;;;;;9.83;4.30;;;;;;;1.82;55.66;100714.18;1698476;84;21049;-73
2022/04/03 07:37:44;;;;;;;14.07;8.73;;;;;;;1.95;55.61;100714.66;1698184;84;21028;-74
2022/04/03 07:40:12;;;;;;;10.90;6.20;;;;;;;2.13;55.73;100724.61;1698382;84;21490;-74
2022/04/03 07:42:40;;;;;;;7.00;4.13;;;;;;;2.30;55.23;100721.66;1698314;84;20989;-74
2022/04/03 07:45:08;;;;;;;12.57;5.87;;;;;;;2.39;54.79;100728.13;1698373;84;21480;-75
2022/04/03 07:47:35;;;;;;;15.40;6.97;;;;;;;2.42;54.42;100725.98;1698101;84;21210;-74
2022/04/03 07:50:04;;;;;;;25.60;13.03;;;;;;;2.48;54.07;100733.75;1698139;84;21035;-74
2022/04/03 07:52:32;;;;;;;9.20;6.33;;;;;;;2.58;54.05;100729.46;1698465;83;21008;-75
2022/04/03 07:54:59;;;;;;;11.13;6.57;;;;;;;2.76;53.80;100730.75;1698515;84;21069;-75
2022/04/03 07:57:26;;;;;;;13.23;8.17;;;;;;;2.95;53.55;100732.05;1723807;82;21030;-74
2022/04/03 07:59:53;;;;;;;11.47;8.43;;;;;;;2.96;52.83;100735.05;1707653;84;21169;-72
2022/04/03 08:02:20;;;;;;;5.27;3.53;;;;;;;2.96;52.62;100734.62;1707492;84;21015;-74
2022/04/03 08:04:47;;;;;;;10.13;6.33;;;;;;;2.94;52.33;100738.95;1707812;84;21027;-74
2022/04/03 08:07:14;;;;;;;5.77;2.93;;;;;;;2.99;52.22;100736.34;1707517;84;21075;-74
2022/04/03 08:09:41;;;;;;;12.87;5.60;;;;;;;3.01;52.08;100741.10;1707748;84;21520;-74
2022/04/03 08:12:10;;;;;;;15.57;6.57;;;;;;;3.01;51.99;100740.66;1707507;83;21200;-74
2022/04/03 08:14:38;;;;;;;14.93;10.37;;;;;;;3.04;51.96;100746.27;1707702;83;20997;-74
2022/04/03 08:17:04;;;;;;;13.13;7.17;;;;;;;3.04;51.53;100741.95;1707479;83;21102;-73
2022/04/03 08:19:31;;;;;;;32.93;14.03;;;;;;;3.01;51.17;100749.73;1703306;83;21044;-73
2022/04/03 08:21:59;;;;;;;27.50;9.77;;;;;;;2.94;50.98;100748.02;1649851;85;22441;-73
2022/04/03 08:24:26;;;;;;;17.23;7.17;;;;;;;3.01;51.17;100760.08;1689696;84;21200;-74
2022/04/03 08:26:53;;;;;;;27.73;10.70;;;;;;;3.22;51.32;100747.56;1722622;83;21052;-73
2022/04/03 08:29:20;;;;;;;19.67;8.17;;;;;;;3.48;51.00;100746.20;1697931;84;21016;-76
2022/04/03 08:31:47;;;;;;;13.47;7.87;;;;;;;3.62;50.67;100751.34;1688508;84;21078;-73
2022/04/03 08:34:14;;;;;;;20.13;9.53;;;;;;;3.73;50.22;100746.99;1668597;86;21051;-75
2022/04/03 08:36:41;;;;;;;43.77;21.03;;;;;;;3.80;49.93;100748.70;1668271;86;21078;-74
2022/04/03 08:39:08;;;;;;;30.23;15.67;;;;;;;3.76;49.50;100752.60;1662500;84;21051;-73
2022/04/03 08:41:36;;;;;;;11.33;8.73;;;;;;;3.66;49.31;100752.19;1671162;84;21023;-72
2022/04/03 08:44:07;;;;;;;5.90;4.37;;;;;;;3.60;48.92;100756.96;1673511;85;21047;-72
2022/04/03 08:46:33;;;;;;;10.00;5.62;;;;;;;3.55;48.82;100759.59;1668527;86;21043;-74
2022/04/03 08:49:03;;;;;;;18.13;8.00;;;;;;;3.52;48.61;100753.53;1668515;86;21122;-72
2022/04/03 08:51:31;;;;;;;32.65;21.90;;;;;;;3.52;48.34;100752.23;1668539;86;21008;-73
2022/04/03 08:53:58;;;;;;;23.27;13.43;;;;;;;3.50;47.85;100761.33;1686990;84;21034;-73
2022/04/03 08:56:25;;;;;;;16.17;8.10;;;;;;;3.56;47.90;100761.30;1679026;85;21130;-73
2022/04/03 08:58:55;;;;;;;4.90;3.80;;;;;;;3.80;48.33;100746.11;1668839;86;21039;-78
2022/04/03 09:01:26;;;;;;;22.20;14.45;;;;;;;4.32;48.07;100747.58;1668926;86;21051;-75
2022/04/03 09:03:54;;;;;;;17.97;8.93;;;;;;;4.32;48.07;100747.58;1700396;84;20916;-73
2022/04/03 09:06:22;;;;;;;25.33;13.63;;;;;;;4.40;47.46;100747.53;1700428;84;20924;-76
2022/04/03 09:08:50;;;;;;;19.47;9.13;;;;;;;4.33;46.84;100751.06;1700542;84;20996;-73
2022/04/03 09:11:18;;;;;;;10.70;5.40;;;;;;;4.32;46.53;100751.47;1700739;84;21217;-73
2022/04/03 09:13:46;;;;;;;4.00;2.30;;;;;;;4.38;46.51;100747.97;1700556;84;21931;-72
2022/04/03 09:16:13;;;;;;;7.83;4.07;;;;;;;4.48;46.20;100759.59;1700716;84;21582;-72
2022/04/03 09:18:51;;;;;;;12.63;6.23;;;;;;;4.45;45.74;100753.56;1700443;84;21031;-73
2022/04/03 09:21:26;;;;;;;12.20;6.33;;;;;;;4.41;45.49;100752.73;1700964;84;21027;-73
2022/04/03 09:24:12;;;;;;;25.37;16.27;;;;;;;4.40;45.29;100744.94;1700542;84;21042;-73
2022/04/03 09:26:43;;;;;;;17.90;12.73;;;;;;;4.44;44.94;100751.41;1700812;84;22117;-71
2022/04/03 09:29:17;;;;;;;7.73;5.30;;;;;;;4.42;44.37;100748.40;1700426;84;21030;-72
2022/04/03 09:31:47;;;;;;;18.90;9.57;;;;;;;4.41;44.38;100753.17;1700883;84;21046;-73
2022/04/03 09:34:19;;;;;;;36.47;20.80;;;;;;;4.46;44.43;100747.49;1700526;84;22047;-87
2022/04/03 09:36:59;;;;;;;13.23;8.10;;;;;;;4.54;44.34;100754.80;1700929;84;21082;-72
2022/04/03 09:39:31;;;;;;;12.33;6.00;;;;;;;4.62;44.17;100747.81;1700760;84;21569;-79
2022/04/03 09:42:12;;;;;;;17.50;12.27;;;;;;;4.68;43.79;100747.80;1700361;84;21012;-72
2022/04/03 09:44:42;;;;;;;14.80;10.58;;;;;;;4.75;43.51;100746.00;1700659;84;21050;-72
2022/04/03 09:47:26;;;;;;;15.07;8.83;;;;;;;4.85;43.45;100742.47;1700514;84;21058;-72
2022/04/03 09:49:58;;;;;;;41.63;26.23;;;;;;;4.87;43.01;100738.55;1699863;84;21090;-71
2022/04/03 09:52:41;;;;;;;35.33;21.03;;;;;;;4.77;42.73;100747.30;1668664;84;21137;-72
2022/04/03 09:55:21;;;;;;;16.97;9.07;;;;;;;4.82;42.74;100745.51;1696915;84;21031;-71
2022/04/03 09:58:05;;;;;;;171.07;97.17;;;;;;;5.14;42.87;100743.95;1661916;85;28706;-72
2022/04/03 10:00:38;;;;;;;99.50;63.00;;;;;;;5.50;42.75;100737.52;1657983;86;21060;-72
2022/04/03 10:03:05;;;;;;;20.70;12.63;;;;;;;6.05;43.09;100732.13;1658253;86;21111;-73
2022/04/03 10:05:37;;;;;;;52.27;30.40;;;;;;;6.45;42.28;100724.61;1658002;86;21150;-72
2022/04/03 10:08:06;;;;;;;6.77;3.50;;;;;;;6.60;41.69;100728.74;1658254;86;21533;-73
2022/04/03 10:10:35;;;;;;;150.53;98.33;;;;;;;6.75;41.39;100724.17;1658002;86;21000;-73
2022/04/03 10:13:04;;;;;;;15.27;9.93;;;;;;;6.75;40.74;100721.12;1658029;86;21039;-74
2022/04/03 10:15:32;;;;;;;22.50;15.90;;;;;;;6.76;40.58;100728.48;1651151;86;21038;-73
2022/04/03 10:17:59;;;;;;;15.83;10.53;;;;;;;6.67;40.09;100731.66;1651071;86;21117;-73
2022/04/03 10:20:28;;;;;;;68.90;38.87;;;;;;;6.60;39.86;100729.19;1650806;87;21038;-72
2022/04/03 10:23:11;;;;;;;18.98;11.05;;;;;;;6.55;39.68;100732.30;1651820;85;21496;-78
2022/04/03 10:25:48;;;;;;;18.90;10.80;;;;;;;6.50;39.53;100731.06;1652009;86;21104;-71
2022/04/03 10:28:15;;;;;;;5.83;3.30;;;;;;;6.50;39.50;100726.30;1681812;84;21528;-72
2022/04/03 10:30:43;;;;;;;12.40;4.83;;;;;;;6.37;39.36;100736.88;1681357;84;21207;-72
2022/04/03 10:33:23;;;;;;;26.47;13.63;;;;;;;6.25;39.52;100729.25;1697195;84;21024;-72
2022/04/03 10:36:07;;;;;;;23.25;13.65;;;;;;;6.11;39.43;100733.34;1697536;84;21010;-70
2022/04/03 10:38:45;;;;;;;9.07;4.90;;;;;;;6.12;39.62;100726.39;1697240;84;21036;-72
2022/04/03 10:41:28;;;;;;;16.50;8.93;;;;;;;6.18;39.67;100731.51;1697481;84;21483;-71
2022/04/03 10:44:25;;;;;;;11.93;5.87;;;;;;;6.17;39.44;100737.61;1697463;84;21739;-71
2022/04/03 10:47:10;;;;;;;42.83;25.93;;;;;;;6.13;39.22;100725.08;1694844;83;21024;-73
2022/04/03 10:50:02;;;;;;;43.30;27.03;;;;;;;6.15;39.21;100732.85;1696952;84;20992;-69
2022/04/03 10:52:43;;;;;;;39.03;25.80;;;;;;;6.30;39.20;100724.84;1678038;85;21104;-70
2022/04/03 10:55:23;;;;;;;14.80;10.73;;;;;;;6.66;39.35;100723.43;1677845;85;21098;-70
2022/04/03 10:58:03;;;;;;;12.05;9.05;;;;;;;6.92;39.04;100721.69;1677973;83;21931;-71
2022/04/03 11:00:33;;;;;;;9.43;5.90;;;;;;;7.55;39.05;100713.19;1677721;85;21657;-72
2022/04/03 11:03:16;;;;;;;9.90;6.60;;;;;;;8.08;38.67;100709.05;1677928;85;21092;-72
2022/04/03 11:05:47;;;;;;;10.80;6.47;;;;;;;8.19;38.13;100705.76;1677885;85;21043;-72
2022/04/03 11:08:17;;;;;;;13.93;5.93;;;;;;;8.11;37.73;100709.84;1677724;85;21043;-73
2022/04/03 11:11:01;;;;;;;8.18;4.60;;;;;;;7.95;37.33;100712.36;1678142;85;26691;-70
2022/04/03 11:13:36;;;;;;;11.93;6.00;;;;;;;7.70;37.10;100714.17;1676268;85;21661;-72
2022/04/03 11:16:12;;;;;;;78.63;55.20;;;;;;;7.43;37.04;100712.98;1677965;85;21040;-72
2022/04/03 11:18:48;;;;;;;14.10;7.47;;;;;;;7.19;36.96;100714.29;1677867;85;21028;-71
2022/04/03 11:21:25;;;;;;;14.37;8.87;;;;;;;6.96;36.88;100717.31;1667182;84;22259;-72
2022/04/03 11:24:00;;;;;;;11.40;5.13;;;;;;;6.68;36.80;100716.46;1659900;86;21148;-74
2022/04/03 11:26:31;;;;;;;6.20;3.33;;;;;;;6.40;36.81;100722.95;1655653;86;20989;-74
2022/04/03 11:28:59;;;;;;;3.60;2.63;;;;;;;6.16;36.94;100716.38;1675789;85;21004;-78
2022/04/03 11:31:27;;;;;;;26.63;15.27;;;;;;;5.94;37.03;100717.10;1682150;85;21039;-75
2022/04/03 11:33:54;;;;;;;19.60;10.77;;;;;;;5.83;37.38;100718.95;1683746;84;21053;-71